sensor_id;sensor_type;location;lat;lon;timestamp;temperature;humidity
19017;DHT22;9641;51.494;6.670;2023-06-14T00:00:44;19.10;1.00
19017;DHT22;9641;51.494;6.670;2023-06-14T00:03:12;19.10;1.00
19017;DHT22;9641;51.494;6.670;2023-06-14T00:05:43;19.20;1.00
19017;DHT22;9641;51.494;6.670;2023-06-14T00:08:13;19.30;1.00
19017;DHT22;9641;51.494;6.670;2023-06-14T00:10:41;19.30;1.00
19017;DHT22;9641;51.494;6.670;2023-06-14T00:13:08;19.20;1.00
19017;DHT22;9641;51.494;6.670;2023-06-14T00:15:38;19.20;1.00
19017;DHT22;9641;51.494;6.670;2023-06-14T00:18:05;19.20;1.00
19017;DHT22;9641;51.494;6.670;2023-06-14T00:20:33;19.20;1.00
19017;DHT22;9641;51.494;6.670;2023-06-14T00:23:00;19.20;1.00
19017;DHT22;9641;51.494;6.670;2023-06-14T00:25:28;19.20;1.00
19017;DHT22;9641;51.494;6.670;2023-06-14T00:28:00;19.10;1.00
19017;DHT22;9641;51.494;6.670;2023-06-14T00:30:27;19.20;1.00
19017;DHT22;9641;51.494;6.670;2023-06-14T00:32:57;19.20;1.00
19017;DHT22;9641;51.494;6.670;2023-06-14T00:35:25;19.20;1.00
19017;DHT22;9641;51.494;6.670;2023-06-14T00:37:52;19.30;1.00
19017;DHT22;9641;51.494;6.670;2023-06-14T00:40:20;19.10;1.00
19017;DHT22;9641;51.494;6.670;2023-06-14T00:42:48;19.10;1.00
19017;DHT22;9641;51.494;6.670;2023-06-14T00:45:16;19.00;1.00
19017;DHT22;9641;51.494;6.670;2023-06-14T00:47:43;19.00;1.00
19017;DHT22;9641;51.494;6.670;2023-06-14T00:50:13;19.00;1.00
19017;DHT22;9641;51.494;6.670;2023-06-14T00:52:40;18.90;1.00
19017;DHT22;9641;51.494;6.670;2023-06-14T00:55:08;18.80;1.00
19017;DHT22;9641;51.494;6.670;2023-06-14T00:57:36;18.80;1.00
19017;DHT22;9641;51.494;6.670;2023-06-14T01:00:06;18.80;1.00
19017;DHT22;9641;51.494;6.670;2023-06-14T01:02:36;18.80;1.00
19017;DHT22;9641;51.494;6.670;2023-06-14T01:05:05;18.80;1.00
19017;DHT22;9641;51.494;6.670;2023-06-14T01:07:45;18.80;1.00
19017;DHT22;9641;51.494;6.670;2023-06-14T01:10:27;18.70;1.00
19017;DHT22;9641;51.494;6.670;2023-06-14T01:13:03;18.80;1.00
19017;DHT22;9641;51.494;6.670;2023-06-14T01:15:32;18.90;1.00
19017;DHT22;9641;51.494;6.670;2023-06-14T01:18:00;18.80;1.00
19017;DHT22;9641;51.494;6.670;2023-06-14T01:20:31;18.80;1.00
19017;DHT22;9641;51.494;6.670;2023-06-14T01:22:59;18.80;1.00
19017;DHT22;9641;51.494;6.670;2023-06-14T01:25:29;18.70;1.00
19017;DHT22;9641;51.494;6.670;2023-06-14T01:27:59;18.80;1.00
19017;DHT22;9641;51.494;6.670;2023-06-14T01:30:29;18.80;1.00
19017;DHT22;9641;51.494;6.670;2023-06-14T01:32:59;18.80;1.00
19017;DHT22;9641;51.494;6.670;2023-06-14T01:35:26;18.80;1.00
19017;DHT22;9641;51.494;6.670;2023-06-14T01:37:54;18.80;1.00
19017;DHT22;9641;51.494;6.670;2023-06-14T01:40:24;18.70;1.00
19017;DHT22;9641;51.494;6.670;2023-06-14T01:42:52;18.70;1.00
19017;DHT22;9641;51.494;6.670;2023-06-14T01:45:19;18.70;1.00
19017;DHT22;9641;51.494;6.670;2023-06-14T01:47:47;18.80;1.00
19017;DHT22;9641;51.494;6.670;2023-06-14T01:50:15;18.70;1.00
19017;DHT22;9641;51.494;6.670;2023-06-14T01:52:42;18.60;1.00
19017;DHT22;9641;51.494;6.670;2023-06-14T01:55:11;18.50;1.00
19017;DHT22;9641;51.494;6.670;2023-06-14T01:57:39;18.60;1.00
19017;DHT22;9641;51.494;6.670;2023-06-14T02:00:08;18.60;1.00
19017;DHT22;9641;51.494;6.670;2023-06-14T02:02:38;18.60;1.00
19017;DHT22;9641;51.494;6.670;2023-06-14T02:05:06;18.60;1.00
19017;DHT22;9641;51.494;6.670;2023-06-14T02:07:33;18.50;1.00
19017;DHT22;9641;51.494;6.670;2023-06-14T02:10:00;18.50;1.00
19017;DHT22;9641;51.494;6.670;2023-06-14T02:12:27;18.40;1.00
19017;DHT22;9641;51.494;6.670;2023-06-14T02:14:58;18.40;1.00
19017;DHT22;9641;51.494;6.670;2023-06-14T02:17:26;18.40;1.00
19017;DHT22;9641;51.494;6.670;2023-06-14T02:19:54;18.30;1.00
19017;DHT22;9641;51.494;6.670;2023-06-14T02:22:22;18.40;1.00
19017;DHT22;9641;51.494;6.670;2023-06-14T02:24:50;18.40;1.00
19017;DHT22;9641;51.494;6.670;2023-06-14T02:27:18;18.30;1.00
19017;DHT22;9641;51.494;6.670;2023-06-14T02:29:45;18.20;1.00
19017;DHT22;9641;51.494;6.670;2023-06-14T02:32:14;18.10;1.00
19017;DHT22;9641;51.494;6.670;2023-06-14T02:34:41;18.20;1.00
19017;DHT22;9641;51.494;6.670;2023-06-14T02:37:09;18.20;1.00
19017;DHT22;9641;51.494;6.670;2023-06-14T02:39:36;18.20;1.00
19017;DHT22;9641;51.494;6.670;2023-06-14T02:42:04;18.20;1.00
19017;DHT22;9641;51.494;6.670;2023-06-14T02:44:31;18.20;1.00
19017;DHT22;9641;51.494;6.670;2023-06-14T02:46:59;18.30;1.00
19017;DHT22;9641;51.494;6.670;2023-06-14T02:49:28;18.30;1.00
19017;DHT22;9641;51.494;6.670;2023-06-14T02:51:56;18.30;1.00
19017;DHT22;9641;51.494;6.670;2023-06-14T02:54:23;18.30;1.00
19017;DHT22;9641;51.494;6.670;2023-06-14T02:56:51;18.40;1.00
19017;DHT22;9641;51.494;6.670;2023-06-14T02:59:18;18.40;1.00
19017;DHT22;9641;51.494;6.670;2023-06-14T03:01:47;18.30;1.00
19017;DHT22;9641;51.494;6.670;2023-06-14T03:04:14;18.30;1.00
19017;DHT22;9641;51.494;6.670;2023-06-14T03:06:44;18.30;1.00
19017;DHT22;9641;51.494;6.670;2023-06-14T03:09:18;18.30;1.00
19017;DHT22;9641;51.494;6.670;2023-06-14T03:11:46;18.30;1.00
19017;DHT22;9641;51.494;6.670;2023-06-14T03:14:14;18.20;1.00
19017;DHT22;9641;51.494;6.670;2023-06-14T03:16:43;18.10;1.00
19017;DHT22;9641;51.494;6.670;2023-06-14T03:19:13;18.00;1.00
19017;DHT22;9641;51.494;6.670;2023-06-14T03:21:40;17.90;1.00
19017;DHT22;9641;51.494;6.670;2023-06-14T03:24:11;17.90;1.00
19017;DHT22;9641;51.494;6.670;2023-06-14T03:26:39;17.90;1.00
19017;DHT22;9641;51.494;6.670;2023-06-14T03:29:06;17.80;1.00
19017;DHT22;9641;51.494;6.670;2023-06-14T03:31:34;17.70;1.00
19017;DHT22;9641;51.494;6.670;2023-06-14T03:34:03;17.70;1.00
19017;DHT22;9641;51.494;6.670;2023-06-14T03:36:30;17.70;1.00
19017;DHT22;9641;51.494;6.670;2023-06-14T03:38:59;17.70;1.00
19017;DHT22;9641;51.494;6.670;2023-06-14T03:41:29;17.60;1.00
19017;DHT22;9641;51.494;6.670;2023-06-14T03:43:56;17.60;1.00
19017;DHT22;9641;51.494;6.670;2023-06-14T03:46:23;17.60;1.00
19017;DHT22;9641;51.494;6.670;2023-06-14T03:48:50;17.60;1.00
19017;DHT22;9641;51.494;6.670;2023-06-14T03:51:19;17.70;1.00
19017;DHT22;9641;51.494;6.670;2023-06-14T03:53:46;17.70;1.00
19017;DHT22;9641;51.494;6.670;2023-06-14T03:56:13;17.80;1.00
19017;DHT22;9641;51.494;6.670;2023-06-14T03:58:44;17.80;1.00
19017;DHT22;9641;51.494;6.670;2023-06-14T04:01:11;17.80;1.00
19017;DHT22;9641;51.494;6.670;2023-06-14T04:03:38;17.80;1.00
19017;DHT22;9641;51.494;6.670;2023-06-14T04:06:06;17.70;1.00
19017;DHT22;9641;51.494;6.670;2023-06-14T04:08:33;17.80;1.00
19017;DHT22;9641;51.494;6.670;2023-06-14T04:11:01;17.80;1.00
19017;DHT22;9641;51.494;6.670;2023-06-14T04:13:29;17.80;1.00
19017;DHT22;9641;51.494;6.670;2023-06-14T04:15:58;17.80;1.00
19017;DHT22;9641;51.494;6.670;2023-06-14T04:18:31;17.80;1.00
19017;DHT22;9641;51.494;6.670;2023-06-14T04:20:58;17.90;1.00
19017;DHT22;9641;51.494;6.670;2023-06-14T04:23:26;17.90;1.00
19017;DHT22;9641;51.494;6.670;2023-06-14T04:25:54;17.90;1.00
19017;DHT22;9641;51.494;6.670;2023-06-14T04:28:28;17.90;1.00
19017;DHT22;9641;51.494;6.670;2023-06-14T04:31:00;17.90;1.00
19017;DHT22;9641;51.494;6.670;2023-06-14T04:33:30;18.00;1.00
19017;DHT22;9641;51.494;6.670;2023-06-14T04:35:57;18.00;1.00
19017;DHT22;9641;51.494;6.670;2023-06-14T04:38:26;17.90;1.00
19017;DHT22;9641;51.494;6.670;2023-06-14T04:40:54;18.00;1.00
19017;DHT22;9641;51.494;6.670;2023-06-14T04:43:23;18.00;1.00
19017;DHT22;9641;51.494;6.670;2023-06-14T04:45:52;18.10;1.00
19017;DHT22;9641;51.494;6.670;2023-06-14T04:48:22;18.10;1.00
19017;DHT22;9641;51.494;6.670;2023-06-14T04:50:50;18.20;1.00
19017;DHT22;9641;51.494;6.670;2023-06-14T04:53:19;18.20;1.00
19017;DHT22;9641;51.494;6.670;2023-06-14T04:55:49;18.20;1.00
19017;DHT22;9641;51.494;6.670;2023-06-14T04:58:18;18.20;1.00
19017;DHT22;9641;51.494;6.670;2023-06-14T05:00:46;18.20;1.00
19017;DHT22;9641;51.494;6.670;2023-06-14T05:03:13;18.30;1.00
19017;DHT22;9641;51.494;6.670;2023-06-14T05:05:42;18.30;1.00
19017;DHT22;9641;51.494;6.670;2023-06-14T05:08:09;18.40;1.00
19017;DHT22;9641;51.494;6.670;2023-06-14T05:10:37;18.40;1.00
19017;DHT22;9641;51.494;6.670;2023-06-14T05:13:05;18.40;1.00
19017;DHT22;9641;51.494;6.670;2023-06-14T05:15:32;18.50;1.00
19017;DHT22;9641;51.494;6.670;2023-06-14T05:17:59;18.50;1.00
19017;DHT22;9641;51.494;6.670;2023-06-14T05:20:28;18.50;1.00
19017;DHT22;9641;51.494;6.670;2023-06-14T05:22:57;18.60;1.00
19017;DHT22;9641;51.494;6.670;2023-06-14T05:25:24;18.60;1.00
19017;DHT22;9641;51.494;6.670;2023-06-14T05:27:51;18.70;1.00
19017;DHT22;9641;51.494;6.670;2023-06-14T05:30:18;18.80;1.00
19017;DHT22;9641;51.494;6.670;2023-06-14T05:32:45;19.00;1.00
19017;DHT22;9641;51.494;6.670;2023-06-14T05:35:12;19.10;1.00
19017;DHT22;9641;51.494;6.670;2023-06-14T05:37:40;19.20;1.00
19017;DHT22;9641;51.494;6.670;2023-06-14T05:40:10;19.30;1.00
19017;DHT22;9641;51.494;6.670;2023-06-14T05:42:40;19.40;1.00
19017;DHT22;9641;51.494;6.670;2023-06-14T05:45:07;19.40;1.00
19017;DHT22;9641;51.494;6.670;2023-06-14T05:47:35;19.50;1.00
19017;DHT22;9641;51.494;6.670;2023-06-14T05:50:02;19.60;1.00
19017;DHT22;9641;51.494;6.670;2023-06-14T05:52:30;19.60;1.00
19017;DHT22;9641;51.494;6.670;2023-06-14T05:54:57;19.70;1.00
19017;DHT22;9641;51.494;6.670;2023-06-14T05:57:27;19.70;1.00
19017;DHT22;9641;51.494;6.670;2023-06-14T05:59:55;19.80;1.00
19017;DHT22;9641;51.494;6.670;2023-06-14T06:02:22;19.80;1.00
19017;DHT22;9641;51.494;6.670;2023-06-14T06:04:49;19.80;1.00
19017;DHT22;9641;51.494;6.670;2023-06-14T06:07:16;19.90;1.00
19017;DHT22;9641;51.494;6.670;2023-06-14T06:09:43;20.00;1.00
19017;DHT22;9641;51.494;6.670;2023-06-14T06:12:11;20.10;1.00
19017;DHT22;9641;51.494;6.670;2023-06-14T06:14:39;20.20;1.00
19017;DHT22;9641;51.494;6.670;2023-06-14T06:17:06;20.20;1.00
19017;DHT22;9641;51.494;6.670;2023-06-14T06:19:35;20.40;1.00
19017;DHT22;9641;51.494;6.670;2023-06-14T06:22:02;20.40;1.00
19017;DHT22;9641;51.494;6.670;2023-06-14T06:24:32;20.50;1.00
19017;DHT22;9641;51.494;6.670;2023-06-14T06:26:59;20.60;1.00
19017;DHT22;9641;51.494;6.670;2023-06-14T06:29:26;20.60;1.00
19017;DHT22;9641;51.494;6.670;2023-06-14T06:31:55;20.80;1.00
19017;DHT22;9641;51.494;6.670;2023-06-14T06:34:22;20.90;1.00
19017;DHT22;9641;51.494;6.670;2023-06-14T06:36:50;20.90;1.00
19017;DHT22;9641;51.494;6.670;2023-06-14T06:39:17;20.90;1.00
19017;DHT22;9641;51.494;6.670;2023-06-14T06:41:46;20.90;1.00
19017;DHT22;9641;51.494;6.670;2023-06-14T06:44:17;20.80;1.00
19017;DHT22;9641;51.494;6.670;2023-06-14T06:46:48;20.90;1.00
19017;DHT22;9641;51.494;6.670;2023-06-14T06:49:17;20.90;1.00
19017;DHT22;9641;51.494;6.670;2023-06-14T06:51:59;20.90;1.00
19017;DHT22;9641;51.494;6.670;2023-06-14T06:54:26;21.00;1.00
19017;DHT22;9641;51.494;6.670;2023-06-14T06:56:53;21.00;1.00
19017;DHT22;9641;51.494;6.670;2023-06-14T06:59:20;21.00;1.00
19017;DHT22;9641;51.494;6.670;2023-06-14T07:01:50;21.00;1.00
19017;DHT22;9641;51.494;6.670;2023-06-14T07:04:19;21.00;1.00
19017;DHT22;9641;51.494;6.670;2023-06-14T07:06:46;21.10;1.00
19017;DHT22;9641;51.494;6.670;2023-06-14T07:09:13;21.20;1.00
19017;DHT22;9641;51.494;6.670;2023-06-14T07:11:42;21.20;1.00
19017;DHT22;9641;51.494;6.670;2023-06-14T07:14:10;21.20;1.00
19017;DHT22;9641;51.494;6.670;2023-06-14T07:16:37;21.20;1.00
19017;DHT22;9641;51.494;6.670;2023-06-14T07:19:05;21.20;1.00
19017;DHT22;9641;51.494;6.670;2023-06-14T07:21:33;21.20;1.00
19017;DHT22;9641;51.494;6.670;2023-06-14T07:24:01;21.30;1.00
19017;DHT22;9641;51.494;6.670;2023-06-14T07:26:28;21.30;1.00
19017;DHT22;9641;51.494;6.670;2023-06-14T07:28:55;21.30;1.00
19017;DHT22;9641;51.494;6.670;2023-06-14T07:31:22;21.40;1.00
19017;DHT22;9641;51.494;6.670;2023-06-14T07:33:49;21.50;1.00
19017;DHT22;9641;51.494;6.670;2023-06-14T07:36:17;21.50;1.00
19017;DHT22;9641;51.494;6.670;2023-06-14T07:38:46;21.50;1.00
19017;DHT22;9641;51.494;6.670;2023-06-14T07:41:13;21.50;1.00
19017;DHT22;9641;51.494;6.670;2023-06-14T07:43:40;21.60;1.00
19017;DHT22;9641;51.494;6.670;2023-06-14T07:46:07;21.60;1.00
19017;DHT22;9641;51.494;6.670;2023-06-14T07:48:35;21.60;1.00
19017;DHT22;9641;51.494;6.670;2023-06-14T07:51:02;21.70;1.00
19017;DHT22;9641;51.494;6.670;2023-06-14T07:53:29;21.80;1.00
19017;DHT22;9641;51.494;6.670;2023-06-14T07:55:59;21.80;1.00
19017;DHT22;9641;51.494;6.670;2023-06-14T07:58:27;21.80;1.00
19017;DHT22;9641;51.494;6.670;2023-06-14T08:00:54;21.80;1.00
19017;DHT22;9641;51.494;6.670;2023-06-14T08:03:21;21.80;1.00
19017;DHT22;9641;51.494;6.670;2023-06-14T08:05:50;21.80;1.00
19017;DHT22;9641;51.494;6.670;2023-06-14T08:08:17;21.90;1.00
19017;DHT22;9641;51.494;6.670;2023-06-14T08:10:45;22.00;1.00
19017;DHT22;9641;51.494;6.670;2023-06-14T08:13:13;22.10;1.00
19017;DHT22;9641;51.494;6.670;2023-06-14T08:15:40;22.00;1.00
19017;DHT22;9641;51.494;6.670;2023-06-14T08:18:07;22.00;1.00
19017;DHT22;9641;51.494;6.670;2023-06-14T08:20:34;22.00;1.00
19017;DHT22;9641;51.494;6.670;2023-06-14T08:23:02;22.00;1.00
19017;DHT22;9641;51.494;6.670;2023-06-14T08:25:31;22.00;1.00
19017;DHT22;9641;51.494;6.670;2023-06-14T08:27:59;22.00;1.00
19017;DHT22;9641;51.494;6.670;2023-06-14T08:30:28;22.00;1.00
19017;DHT22;9641;51.494;6.670;2023-06-14T08:32:55;22.10;1.00
19017;DHT22;9641;51.494;6.670;2023-06-14T08:35:23;22.20;1.00
19017;DHT22;9641;51.494;6.670;2023-06-14T08:37:50;22.20;1.00
19017;DHT22;9641;51.494;6.670;2023-06-14T08:40:21;22.20;1.00
19017;DHT22;9641;51.494;6.670;2023-06-14T08:42:51;22.30;1.00
19017;DHT22;9641;51.494;6.670;2023-06-14T08:45:18;22.40;1.00
19017;DHT22;9641;51.494;6.670;2023-06-14T08:47:47;22.40;1.00
19017;DHT22;9641;51.494;6.670;2023-06-14T08:50:20;22.50;1.00
19017;DHT22;9641;51.494;6.670;2023-06-14T08:52:54;22.50;1.00
19017;DHT22;9641;51.494;6.670;2023-06-14T08:55:23;22.60;1.00
19017;DHT22;9641;51.494;6.670;2023-06-14T08:57:54;22.50;1.00
19017;DHT22;9641;51.494;6.670;2023-06-14T09:00:22;22.50;1.00
19017;DHT22;9641;51.494;6.670;2023-06-14T09:02:51;22.50;1.00
19017;DHT22;9641;51.494;6.670;2023-06-14T09:05:23;22.50;1.00
19017;DHT22;9641;51.494;6.670;2023-06-14T09:07:51;22.40;1.00
19017;DHT22;9641;51.494;6.670;2023-06-14T09:10:18;22.50;1.00
19017;DHT22;9641;51.494;6.670;2023-06-14T09:12:47;22.40;1.00
19017;DHT22;9641;51.494;6.670;2023-06-14T09:15:14;22.40;1.00
19017;DHT22;9641;51.494;6.670;2023-06-14T09:17:41;22.50;1.00
19017;DHT22;9641;51.494;6.670;2023-06-14T09:20:10;22.50;1.00
19017;DHT22;9641;51.494;6.670;2023-06-14T09:22:39;22.60;1.00
19017;DHT22;9641;51.494;6.670;2023-06-14T09:25:07;22.50;1.00
19017;DHT22;9641;51.494;6.670;2023-06-14T09:27:34;22.50;1.00
19017;DHT22;9641;51.494;6.670;2023-06-14T09:30:08;22.50;1.00
19017;DHT22;9641;51.494;6.670;2023-06-14T09:32:37;22.50;1.00
19017;DHT22;9641;51.494;6.670;2023-06-14T09:35:09;22.60;1.00
19017;DHT22;9641;51.494;6.670;2023-06-14T09:37:40;22.60;1.00
19017;DHT22;9641;51.494;6.670;2023-06-14T09:40:08;22.50;1.00
19017;DHT22;9641;51.494;6.670;2023-06-14T09:42:36;22.60;1.00
19017;DHT22;9641;51.494;6.670;2023-06-14T09:45:05;22.60;1.00
19017;DHT22;9641;51.494;6.670;2023-06-14T09:47:32;22.60;1.00
19017;DHT22;9641;51.494;6.670;2023-06-14T09:49:59;22.70;1.00
19017;DHT22;9641;51.494;6.670;2023-06-14T09:52:27;22.90;1.00
19017;DHT22;9641;51.494;6.670;2023-06-14T09:54:56;22.90;1.00
19017;DHT22;9641;51.494;6.670;2023-06-14T09:57:27;22.90;1.00
19017;DHT22;9641;51.494;6.670;2023-06-14T10:00:00;22.90;1.00
19017;DHT22;9641;51.494;6.670;2023-06-14T10:02:39;22.90;1.00
19017;DHT22;9641;51.494;6.670;2023-06-14T10:05:15;23.00;1.00
19017;DHT22;9641;51.494;6.670;2023-06-14T10:07:50;23.00;1.00
19017;DHT22;9641;51.494;6.670;2023-06-14T10:10:20;23.00;1.00
19017;DHT22;9641;51.494;6.670;2023-06-14T10:12:48;23.00;1.00
19017;DHT22;9641;51.494;6.670;2023-06-14T10:15:20;22.90;1.00
19017;DHT22;9641;51.494;6.670;2023-06-14T10:17:51;22.90;1.00
19017;DHT22;9641;51.494;6.670;2023-06-14T10:20:27;23.20;1.00
19017;DHT22;9641;51.494;6.670;2023-06-14T10:23:01;23.40;1.00
19017;DHT22;9641;51.494;6.670;2023-06-14T10:25:30;23.40;1.00
19017;DHT22;9641;51.494;6.670;2023-06-14T10:28:14;23.40;1.00
19017;DHT22;9641;51.494;6.670;2023-06-14T10:31:04;23.40;1.00
19017;DHT22;9641;51.494;6.670;2023-06-14T10:33:31;23.40;1.00
19017;DHT22;9641;51.494;6.670;2023-06-14T10:36:27;23.40;1.00
19017;DHT22;9641;51.494;6.670;2023-06-14T10:39:04;23.40;1.00
19017;DHT22;9641;51.494;6.670;2023-06-14T10:41:34;23.60;1.00
19017;DHT22;9641;51.494;6.670;2023-06-14T10:44:33;23.60;1.00
19017;DHT22;9641;51.494;6.670;2023-06-14T10:47:01;23.60;1.00
19017;DHT22;9641;51.494;6.670;2023-06-14T10:49:41;23.70;1.00
19017;DHT22;9641;51.494;6.670;2023-06-14T10:52:09;23.80;1.00
19017;DHT22;9641;51.494;6.670;2023-06-14T10:55:03;23.90;1.00
19017;DHT22;9641;51.494;6.670;2023-06-14T10:57:32;24.00;1.00
19017;DHT22;9641;51.494;6.670;2023-06-14T10:59:59;24.00;1.00
19017;DHT22;9641;51.494;6.670;2023-06-14T11:03:13;24.20;1.00
19017;DHT22;9641;51.494;6.670;2023-06-14T11:05:51;24.40;1.00
19017;DHT22;9641;51.494;6.670;2023-06-14T11:08:50;24.60;1.00
19017;DHT22;9641;51.494;6.670;2023-06-14T11:11:23;24.60;1.00
19017;DHT22;9641;51.494;6.670;2023-06-14T11:13:51;24.70;1.00
19017;DHT22;9641;51.494;6.670;2023-06-14T11:16:19;24.80;1.00
19017;DHT22;9641;51.494;6.670;2023-06-14T11:18:46;25.30;1.00
19017;DHT22;9641;51.494;6.670;2023-06-14T11:21:18;26.00;1.00
19017;DHT22;9641;51.494;6.670;2023-06-14T11:23:49;26.30;1.00
19017;DHT22;9641;51.494;6.670;2023-06-14T11:26:25;26.50;1.00
19017;DHT22;9641;51.494;6.670;2023-06-14T11:28:56;27.00;1.00
19017;DHT22;9641;51.494;6.670;2023-06-14T11:31:24;27.10;1.00
19017;DHT22;9641;51.494;6.670;2023-06-14T11:33:54;27.30;1.00
19017;DHT22;9641;51.494;6.670;2023-06-14T11:36:21;27.60;1.00
19017;DHT22;9641;51.494;6.670;2023-06-14T11:38:48;28.00;1.00
19017;DHT22;9641;51.494;6.670;2023-06-14T11:41:16;28.50;1.00
19017;DHT22;9641;51.494;6.670;2023-06-14T11:43:44;28.90;1.00
19017;DHT22;9641;51.494;6.670;2023-06-14T11:46:14;29.00;1.00
19017;DHT22;9641;51.494;6.670;2023-06-14T11:48:42;29.50;1.00
19017;DHT22;9641;51.494;6.670;2023-06-14T11:51:10;29.50;1.00
19017;DHT22;9641;51.494;6.670;2023-06-14T11:53:37;29.80;1.00
19017;DHT22;9641;51.494;6.670;2023-06-14T11:56:07;29.60;1.00
19017;DHT22;9641;51.494;6.670;2023-06-14T11:58:37;29.70;1.00
19017;DHT22;9641;51.494;6.670;2023-06-14T12:01:05;29.60;1.00
19017;DHT22;9641;51.494;6.670;2023-06-14T12:03:33;29.90;1.00
19017;DHT22;9641;51.494;6.670;2023-06-14T12:06:08;30.20;1.00
19017;DHT22;9641;51.494;6.670;2023-06-14T12:08:38;30.60;1.00
19017;DHT22;9641;51.494;6.670;2023-06-14T12:11:06;30.30;1.00
19017;DHT22;9641;51.494;6.670;2023-06-14T12:13:38;30.30;1.00
19017;DHT22;9641;51.494;6.670;2023-06-14T12:16:08;30.90;1.00
19017;DHT22;9641;51.494;6.670;2023-06-14T12:18:37;30.40;1.00
19017;DHT22;9641;51.494;6.670;2023-06-14T12:21:05;30.50;1.00
19017;DHT22;9641;51.494;6.670;2023-06-14T12:23:43;30.40;1.00
19017;DHT22;9641;51.494;6.670;2023-06-14T12:26:13;30.70;1.00
19017;DHT22;9641;51.494;6.670;2023-06-14T12:28:41;31.40;1.00
19017;DHT22;9641;51.494;6.670;2023-06-14T12:31:12;31.40;1.00
19017;DHT22;9641;51.494;6.670;2023-06-14T12:33:39;32.10;1.00
19017;DHT22;9641;51.494;6.670;2023-06-14T12:36:07;32.10;1.00
19017;DHT22;9641;51.494;6.670;2023-06-14T12:38:38;31.70;1.00
19017;DHT22;9641;51.494;6.670;2023-06-14T12:41:07;32.00;1.00
19017;DHT22;9641;51.494;6.670;2023-06-14T12:43:34;31.90;1.00
19017;DHT22;9641;51.494;6.670;2023-06-14T12:46:01;31.40;1.00
19017;DHT22;9641;51.494;6.670;2023-06-14T12:48:30;31.40;1.00
19017;DHT22;9641;51.494;6.670;2023-06-14T12:50:57;31.60;1.00
19017;DHT22;9641;51.494;6.670;2023-06-14T12:53:25;31.90;1.00
19017;DHT22;9641;51.494;6.670;2023-06-14T12:55:51;32.10;1.00
19017;DHT22;9641;51.494;6.670;2023-06-14T12:58:18;32.40;1.00
19017;DHT22;9641;51.494;6.670;2023-06-14T13:00:46;32.80;1.00
19017;DHT22;9641;51.494;6.670;2023-06-14T13:03:13;33.10;1.00
19017;DHT22;9641;51.494;6.670;2023-06-14T13:05:42;33.10;1.00
19017;DHT22;9641;51.494;6.670;2023-06-14T13:08:09;32.70;1.00
19017;DHT22;9641;51.494;6.670;2023-06-14T13:10:36;33.10;1.00
19017;DHT22;9641;51.494;6.670;2023-06-14T13:13:03;33.40;1.00
19017;DHT22;9641;51.494;6.670;2023-06-14T13:15:30;33.50;1.00
19017;DHT22;9641;51.494;6.670;2023-06-14T13:17:57;33.80;1.00
19017;DHT22;9641;51.494;6.670;2023-06-14T13:20:24;34.30;1.00
19017;DHT22;9641;51.494;6.670;2023-06-14T13:22:53;35.20;1.00
19017;DHT22;9641;51.494;6.670;2023-06-14T13:25:20;35.60;1.00
19017;DHT22;9641;51.494;6.670;2023-06-14T13:27:48;35.10;1.00
19017;DHT22;9641;51.494;6.670;2023-06-14T13:30:15;34.50;1.00
19017;DHT22;9641;51.494;6.670;2023-06-14T13:32:42;34.50;1.00
19017;DHT22;9641;51.494;6.670;2023-06-14T13:35:10;34.50;1.00
19017;DHT22;9641;51.494;6.670;2023-06-14T13:37:37;34.20;1.00
19017;DHT22;9641;51.494;6.670;2023-06-14T13:40:07;34.50;1.00
19017;DHT22;9641;51.494;6.670;2023-06-14T13:42:34;34.30;1.00
19017;DHT22;9641;51.494;6.670;2023-06-14T13:45:02;35.10;1.00
19017;DHT22;9641;51.494;6.670;2023-06-14T13:47:29;35.00;1.00
19017;DHT22;9641;51.494;6.670;2023-06-14T13:49:56;35.20;1.00
19017;DHT22;9641;51.494;6.670;2023-06-14T13:52:23;34.80;1.00
19017;DHT22;9641;51.494;6.670;2023-06-14T13:54:51;35.00;1.00
19017;DHT22;9641;51.494;6.670;2023-06-14T13:57:20;34.80;1.00
19017;DHT22;9641;51.494;6.670;2023-06-14T13:59:47;34.50;1.00
19017;DHT22;9641;51.494;6.670;2023-06-14T14:02:15;34.40;1.00
19017;DHT22;9641;51.494;6.670;2023-06-14T14:04:42;33.80;1.00
19017;DHT22;9641;51.494;6.670;2023-06-14T14:07:09;34.00;1.00
19017;DHT22;9641;51.494;6.670;2023-06-14T14:09:36;35.10;1.00
19017;DHT22;9641;51.494;6.670;2023-06-14T14:12:05;36.20;1.00
19017;DHT22;9641;51.494;6.670;2023-06-14T14:14:34;35.50;1.00
19017;DHT22;9641;51.494;6.670;2023-06-14T14:17:02;35.00;1.00
19017;DHT22;9641;51.494;6.670;2023-06-14T14:19:29;34.60;1.00
19017;DHT22;9641;51.494;6.670;2023-06-14T14:21:56;34.50;1.00
19017;DHT22;9641;51.494;6.670;2023-06-14T14:24:23;35.10;1.00
19017;DHT22;9641;51.494;6.670;2023-06-14T14:26:51;35.10;1.00
19017;DHT22;9641;51.494;6.670;2023-06-14T14:29:19;35.80;1.00
19017;DHT22;9641;51.494;6.670;2023-06-14T14:31:47;35.50;1.00
19017;DHT22;9641;51.494;6.670;2023-06-14T14:34:14;35.50;1.00
19017;DHT22;9641;51.494;6.670;2023-06-14T14:36:41;35.80;1.00
19017;DHT22;9641;51.494;6.670;2023-06-14T14:39:09;36.20;1.00
19017;DHT22;9641;51.494;6.670;2023-06-14T14:41:45;36.40;1.00
19017;DHT22;9641;51.494;6.670;2023-06-14T14:44:12;35.80;1.00
19017;DHT22;9641;51.494;6.670;2023-06-14T14:46:40;36.00;1.00
19017;DHT22;9641;51.494;6.670;2023-06-14T14:49:14;36.40;1.00
19017;DHT22;9641;51.494;6.670;2023-06-14T14:51:41;36.40;1.00
19017;DHT22;9641;51.494;6.670;2023-06-14T14:54:08;35.90;1.00
19017;DHT22;9641;51.494;6.670;2023-06-14T14:56:36;36.30;1.00
19017;DHT22;9641;51.494;6.670;2023-06-14T14:59:04;36.60;1.00
19017;DHT22;9641;51.494;6.670;2023-06-14T15:01:31;37.00;1.00
19017;DHT22;9641;51.494;6.670;2023-06-14T15:03:58;36.60;1.00
19017;DHT22;9641;51.494;6.670;2023-06-14T15:06:26;36.60;1.00
19017;DHT22;9641;51.494;6.670;2023-06-14T15:08:53;36.90;1.00
19017;DHT22;9641;51.494;6.670;2023-06-14T15:11:20;37.10;1.00
19017;DHT22;9641;51.494;6.670;2023-06-14T15:13:48;36.40;1.00
19017;DHT22;9641;51.494;6.670;2023-06-14T15:16:18;36.10;1.00
19017;DHT22;9641;51.494;6.670;2023-06-14T15:18:45;36.10;1.00
19017;DHT22;9641;51.494;6.670;2023-06-14T15:21:12;35.60;1.00
19017;DHT22;9641;51.494;6.670;2023-06-14T15:23:41;35.70;1.00
19017;DHT22;9641;51.494;6.670;2023-06-14T15:26:08;35.40;1.00
19017;DHT22;9641;51.494;6.670;2023-06-14T15:28:38;35.90;1.00
19017;DHT22;9641;51.494;6.670;2023-06-14T15:31:05;36.90;1.00
19017;DHT22;9641;51.494;6.670;2023-06-14T15:33:33;36.80;1.00
19017;DHT22;9641;51.494;6.670;2023-06-14T15:36:00;37.20;1.00
19017;DHT22;9641;51.494;6.670;2023-06-14T15:38:27;37.00;1.00
19017;DHT22;9641;51.494;6.670;2023-06-14T15:40:56;37.20;1.00
19017;DHT22;9641;51.494;6.670;2023-06-14T15:43:23;37.70;1.00
19017;DHT22;9641;51.494;6.670;2023-06-14T15:45:52;38.10;1.00
19017;DHT22;9641;51.494;6.670;2023-06-14T15:48:19;38.20;1.00
19017;DHT22;9641;51.494;6.670;2023-06-14T15:50:46;38.70;1.00
19017;DHT22;9641;51.494;6.670;2023-06-14T15:53:13;38.50;1.00
19017;DHT22;9641;51.494;6.670;2023-06-14T15:55:41;37.60;1.00
19017;DHT22;9641;51.494;6.670;2023-06-14T15:58:11;37.40;1.00
19017;DHT22;9641;51.494;6.670;2023-06-14T16:00:39;36.50;1.00
19017;DHT22;9641;51.494;6.670;2023-06-14T16:03:06;36.60;1.00
19017;DHT22;9641;51.494;6.670;2023-06-14T16:05:33;37.50;1.00
19017;DHT22;9641;51.494;6.670;2023-06-14T16:08:00;36.80;1.00
19017;DHT22;9641;51.494;6.670;2023-06-14T16:10:28;36.30;1.00
19017;DHT22;9641;51.494;6.670;2023-06-14T16:12:56;35.80;1.00